This is the latest recevied weather packets stored in our database for station/object PA3EUZ. If no packets are shown the sender has not sent any weather packets the latest 10 day(s).
| Time | Temp. | Humidity | Pressure | Rain* | Wind** | Luminosity | Snow |
|---|---|---|---|---|---|---|---|
| 1778194838 | 11.11° C | 86% | 1017.2 hPa | 0 mm | - | 0 W/m² | - |
| 1778193018 | 11.67° C | 84% | 1017.2 hPa | 0 mm | - | 0 W/m² | - |
| 1778191218 | 11.67° C | 82% | 1017.2 hPa | 0 mm | - | 0 W/m² | - |
| 1778181316 | 13.33° C | 77% | 1016.3 hPa | 0 mm | - | 0 W/m² | - |
| 1778180497 | 13.33° C | 75% | 1016.3 hPa | 0 mm | - | 3 W/m² | - |
| 1778179536 | 13.89° C | 74% | 1016.3 hPa | 0 mm | - | 8 W/m² | - |
| 1778175916 | 14.44° C | 69% | 1016.2 hPa | 0 mm | - | 25 W/m² | - |
| 1778173216 | 14.44° C | 67% | 1016.3 hPa | 0 mm | - | 37 W/m² | - |
| 1778170516 | 15° C | 66% | 1016.3 hPa | 0 mm | - | 60 W/m² | - |
| 1778169616 | 15° C | 64% | 1016.3 hPa | 0 mm | - | 69 W/m² | - |
| 1778165116 | 15° C | 58% | 1016.1 hPa | 0 mm | - | 83 W/m² | - |
| 1778154316 | 15.56° C | 56% | 1016.2 hPa | 0 mm | - | 310 W/m² | - |
| 1778148016 | 16.11° C | 57% | 1016.3 hPa | 0 mm | - | 165 W/m² | - |
| 1778130018 | 7.78° C | 88% | 1014.9 hPa | 0 mm | - | 33 W/m² | - |
| 1778127318 | 8.33° C | 89% | 1014.4 hPa | 0 mm | - | 2 W/m² | - |
| 1778121918 | 8.89° C | 86% | 1014 hPa | 0 mm | - | 0 W/m² | - |
| 1778119218 | 9.44° C | 83% | 1013.7 hPa | 0 mm | - | 0 W/m² | - |
| 1778114718 | 10° C | 81% | 1013.4 hPa | 0 mm | - | 0 W/m² | - |
| 1778113818 | 10° C | 80% | 1013.4 hPa | 0 mm | - | 0 W/m² | - |
| 1778112918 | 10° C | 80% | 1013.3 hPa | 0 mm | - | 0 W/m² | - |
| 1778106618 | 10.56° C | 78% | 1012.9 hPa | 0 mm | - | 0 W/m² | - |
| 1778105738 | 11.11° C | 77% | 1012.8 hPa | 0 mm | - | 0 W/m² | - |
| 1778104818 | 11.11° C | 76% | 1012.8 hPa | 0 mm | - | 0 W/m² | - |
| 1778103917 | 11.11° C | 75% | 1012.7 hPa | 0 mm | - | 0 W/m² | - |
| 1778101237 | 11.67° C | 70% | 1012.4 hPa | 0 mm | - | 0 W/m² | - |
* Rain latest hour (hover to see other rain measurements)
** Current wind speed in m/s (hover to see current wind gust speed)